Time,TemperatureF,DewpointF,PressureIn,WindDirection,WindDirectionDegrees,WindSpeedMPH,WindSpeedGustMPH,Humidity,HourlyPrecipIn,Conditions,Clouds,dailyrainin,SolarRadiationWatts/m^2,SoftwareType,DateUTC
2013-01-31 06:40:00,-16.0,-29.0,-100.00,NW,323,11.0,27.0,50,0.00,,,0.00,0.000000,,2013-01-31 13:40:00,
2013-01-31 07:03:00,-16.0,-29.0,-100.00,NW,323,11.0,27.0,50,0.00,,,0.00,0.000000,,2013-01-31 14:03:00,
2013-01-31 07:11:00,-16.0,-29.0,-100.00,NW,323,11.0,27.0,50,0.00,,,0.00,0.000000,,2013-01-31 14:11:00,
2013-01-31 07:22:00,-16.0,-29.0,-100.00,NW,323,11.0,27.0,50,0.00,,,0.00,0.000000,,2013-01-31 14:22:00,
2013-01-31 07:32:00,-16.0,-29.0,-100.00,NW,323,11.0,27.0,50,0.00,,,0.00,0.000000,,2013-01-31 14:32:00,
2013-01-31 07:40:00,-17.0,-30.0,-100.00,WNW,286,12.0,18.0,49,0.00,,,0.00,3.000000,,2013-01-31 14:40:00,
2013-01-31 08:03:00,-17.0,-30.0,-100.00,WNW,286,12.0,18.0,49,0.00,,,0.00,3.000000,,2013-01-31 15:03:00,
2013-01-31 08:12:00,-17.0,-30.0,-100.00,WNW,286,12.0,18.0,49,0.00,,,0.00,3.000000,,2013-01-31 15:12:00,
2013-01-31 08:22:00,-17.0,-30.0,-100.00,WNW,286,12.0,18.0,49,0.00,,,0.00,3.000000,,2013-01-31 15:22:00,
2013-01-31 08:32:00,-17.0,-30.0,-100.00,WNW,286,12.0,18.0,49,0.00,,,0.00,3.000000,,2013-01-31 15:32:00,
2013-01-31 08:40:00,-15.0,-29.0,-100.00,WNW,293,12.0,19.0,48,0.00,,,0.00,79.000000,,2013-01-31 15:40:00,
2013-01-31 09:03:00,-15.0,-29.0,-100.00,WNW,293,12.0,19.0,48,0.00,,,0.00,79.000000,,2013-01-31 16:03:00,
2013-01-31 09:12:00,-15.0,-29.0,-100.00,WNW,293,12.0,19.0,48,0.00,,,0.00,79.000000,,2013-01-31 16:12:00,
2013-01-31 09:22:00,-15.0,-29.0,-100.00,WNW,293,12.0,19.0,48,0.00,,,0.00,79.000000,,2013-01-31 16:22:00,
2013-01-31 09:33:00,-15.0,-29.0,-100.00,WNW,293,12.0,19.0,48,0.00,,,0.00,79.000000,,2013-01-31 16:33:00,
2013-01-31 09:40:00,-12.0,-28.0,-100.00,WNW,298,12.0,18.0,44,0.00,,,0.00,251.000000,,2013-01-31 16:40:00,
2013-01-31 10:02:00,-12.0,-28.0,-100.00,WNW,298,12.0,18.0,44,0.00,,,0.00,251.000000,,2013-01-31 17:02:00,
2013-01-31 10:12:00,-12.0,-28.0,-100.00,WNW,298,12.0,18.0,44,0.00,,,0.00,251.000000,,2013-01-31 17:12:00,
2013-01-31 10:23:00,-12.0,-28.0,-100.00,WNW,298,12.0,18.0,44,0.00,,,0.00,251.000000,,2013-01-31 17:23:00,
2013-01-31 10:32:00,-12.0,-28.0,-100.00,WNW,298,12.0,18.0,44,0.00,,,0.00,251.000000,,2013-01-31 17:32:00,
2013-01-31 10:40:00,-8.0,-25.0,-100.00,West,271,7.0,20.0,42,0.00,,,0.00,400.000000,,2013-01-31 17:40:00,
2013-01-31 11:03:00,-8.0,-25.0,-100.00,West,271,7.0,20.0,42,0.00,,,0.00,400.000000,,2013-01-31 18:03:00,
2013-01-31 11:12:00,-8.0,-25.0,-100.00,West,271,7.0,20.0,42,0.00,,,0.00,400.000000,,2013-01-31 18:12:00,
2013-01-31 11:22:00,-8.0,-25.0,-100.00,West,271,7.0,20.0,42,0.00,,,0.00,400.000000,,2013-01-31 18:22:00,
2013-01-31 11:32:00,-8.0,-25.0,-100.00,West,271,7.0,20.0,42,0.00,,,0.00,400.000000,,2013-01-31 18:32:00,
2013-01-31 11:40:00,-6.0,-23.0,-100.00,WNW,283,9.0,18.0,42,0.00,,,0.00,495.000000,,2013-01-31 18:40:00,
2013-01-31 12:02:00,-6.0,-23.0,-100.00,WNW,283,9.0,18.0,42,0.00,,,0.00,495.000000,,2013-01-31 19:02:00,
2013-01-31 12:12:00,-6.0,-23.0,-100.00,WNW,283,9.0,18.0,42,0.00,,,0.00,495.000000,,2013-01-31 19:12:00,
2013-01-31 12:22:00,-6.0,-23.0,-100.00,WNW,283,9.0,18.0,42,0.00,,,0.00,495.000000,,2013-01-31 19:22:00,
2013-01-31 12:32:00,-6.0,-23.0,-100.00,WNW,283,9.0,18.0,42,0.00,,,0.00,495.000000,,2013-01-31 19:32:00,
2013-01-31 12:40:00,-4.0,-22.0,-100.00,WNW,284,7.0,15.0,41,0.00,,,0.00,527.000000,,2013-01-31 19:40:00,
2013-01-31 13:02:00,-4.0,-22.0,-100.00,WNW,284,7.0,15.0,41,0.00,,,0.00,527.000000,,2013-01-31 20:02:00,
2013-01-31 13:11:00,-4.0,-22.0,-100.00,WNW,284,7.0,15.0,41,0.00,,,0.00,527.000000,,2013-01-31 20:11:00,
2013-01-31 13:22:00,-4.0,-22.0,-100.00,WNW,284,7.0,15.0,41,0.00,,,0.00,527.000000,,2013-01-31 20:22:00,
2013-01-31 13:31:00,-4.0,-22.0,-100.00,WNW,284,7.0,15.0,41,0.00,,,0.00,527.000000,,2013-01-31 20:31:00,
2013-01-31 13:40:00,-4.0,-22.0,-100.00,West,263,8.0,12.0,41,0.00,,,0.00,449.000000,,2013-01-31 20:40:00,
2013-01-31 14:02:00,-4.0,-22.0,-100.00,West,263,8.0,12.0,41,0.00,,,0.00,449.000000,,2013-01-31 21:02:00,
2013-01-31 14:12:00,-4.0,-22.0,-100.00,West,263,8.0,12.0,41,0.00,,,0.00,449.000000,,2013-01-31 21:12:00,
2013-01-31 14:22:00,-4.0,-22.0,-100.00,West,263,8.0,12.0,41,0.00,,,0.00,449.000000,,2013-01-31 21:22:00,
2013-01-31 14:32:00,-4.0,-22.0,-100.00,West,263,8.0,12.0,41,0.00,,,0.00,449.000000,,2013-01-31 21:32:00,
2013-01-31 14:40:00,-2.0,-19.0,-100.00,West,270,7.0,14.0,43,0.00,,,0.00,403.000000,,2013-01-31 21:40:00,
2013-01-31 15:03:00,-2.0,-19.0,-100.00,West,270,7.0,14.0,43,0.00,,,0.00,403.000000,,2013-01-31 22:03:00,
2013-01-31 15:11:00,-2.0,-19.0,-100.00,West,270,7.0,14.0,43,0.00,,,0.00,403.000000,,2013-01-31 22:11:00,
2013-01-31 15:22:00,-2.0,-19.0,-100.00,West,270,7.0,14.0,43,0.00,,,0.00,403.000000,,2013-01-31 22:22:00,
2013-01-31 15:33:00,-2.0,-19.0,-100.00,West,270,7.0,14.0,43,0.00,,,0.00,403.000000,,2013-01-31 22:33:00,
2013-01-31 15:40:00,0.0,-16.0,-100.00,West,259,6.0,10.0,47,0.00,,,0.00,144.000000,,2013-01-31 22:40:00,
2013-01-31 16:02:00,0.0,-16.0,-100.00,West,259,6.0,10.0,47,0.00,,,0.00,144.000000,,2013-01-31 23:02:00,
2013-01-31 16:12:00,0.0,-16.0,-100.00,West,259,6.0,10.0,47,0.00,,,0.00,144.000000,,2013-01-31 23:12:00,
2013-01-31 16:22:00,0.0,-16.0,-100.00,West,259,6.0,10.0,47,0.00,,,0.00,144.000000,,2013-01-31 23:22:00,
2013-01-31 16:32:00,0.0,-16.0,-100.00,West,259,6.0,10.0,47,0.00,,,0.00,144.000000,,2013-01-31 23:32:00,
2013-01-31 16:40:00,1.0,-13.0,-100.00,West,264,4.0,9.0,51,0.00,,,0.00,54.000000,,2013-01-31 23:40:00,
2013-01-31 17:01:00,1.0,-13.0,-100.00,West,264,4.0,9.0,51,0.00,,,0.00,54.000000,,2013-02-01 00:01:00,
2013-01-31 17:11:00,1.0,-13.0,-100.00,West,264,4.0,9.0,51,0.00,,,0.00,54.000000,,2013-02-01 00:11:00,
2013-01-31 17:22:00,1.0,-13.0,-100.00,West,264,4.0,9.0,51,0.00,,,0.00,54.000000,,2013-02-01 00:22:00,
2013-01-31 17:32:00,1.0,-13.0,-100.00,West,264,4.0,9.0,51,0.00,,,0.00,54.000000,,2013-02-01 00:32:00,
2013-01-31 17:40:00,2.0,-12.0,-100.00,West,261,6.0,11.0,52,0.00,,,0.00,3.000000,,2013-02-01 00:40:00,
2013-01-31 18:01:00,2.0,-12.0,-100.00,West,261,6.0,11.0,52,0.00,,,0.00,3.000000,,2013-02-01 01:01:00,
2013-01-31 18:11:00,2.0,-12.0,-100.00,West,261,6.0,11.0,52,0.00,,,0.00,3.000000,,2013-02-01 01:11:00,
2013-01-31 18:21:00,2.0,-12.0,-100.00,West,261,6.0,11.0,52,0.00,,,0.00,3.000000,,2013-02-01 01:21:00,
2013-01-31 18:32:00,2.0,-12.0,-100.00,West,261,6.0,11.0,52,0.00,,,0.00,3.000000,,2013-02-01 01:32:00,
2013-01-31 18:40:00,4.0,-9.0,-100.00,WSW,247,4.0,14.0,53,0.00,,,0.00,0.000000,,2013-02-01 01:40:00,
2013-01-31 19:02:00,4.0,-9.0,-100.00,WSW,247,4.0,14.0,53,0.00,,,0.00,0.000000,,2013-02-01 02:02:00,
2013-01-31 19:11:00,4.0,-9.0,-100.00,WSW,247,4.0,14.0,53,0.00,,,0.00,0.000000,,2013-02-01 02:11:00,
2013-01-31 19:21:00,4.0,-9.0,-100.00,WSW,247,4.0,14.0,53,0.00,,,0.00,0.000000,,2013-02-01 02:21:00,
2013-01-31 19:32:00,4.0,-9.0,-100.00,WSW,247,4.0,14.0,53,0.00,,,0.00,0.000000,,2013-02-01 02:32:00,
2013-01-31 19:40:00,6.0,-6.0,-100.00,SW,231,4.0,7.0,56,0.00,,,0.00,0.000000,,2013-02-01 02:40:00,
2013-01-31 20:02:00,6.0,-6.0,-100.00,SW,231,4.0,7.0,56,0.00,,,0.00,0.000000,,2013-02-01 03:02:00,
2013-01-31 20:12:00,6.0,-6.0,-100.00,SW,231,4.0,7.0,56,0.00,,,0.00,0.000000,,2013-02-01 03:12:00,
2013-01-31 20:21:00,6.0,-6.0,-100.00,SW,231,4.0,7.0,56,0.00,,,0.00,0.000000,,2013-02-01 03:21:00,
2013-01-31 20:32:00,6.0,-6.0,-100.00,SW,231,4.0,7.0,56,0.00,,,0.00,0.000000,,2013-02-01 03:32:00,
2013-01-31 20:40:00,9.0,-2.0,-100.00,SW,224,2.0,7.0,59,0.00,,,0.00,0.000000,,2013-02-01 03:40:00,
2013-01-31 21:02:00,9.0,-2.0,-100.00,SW,224,2.0,7.0,59,0.00,,,0.00,0.000000,,2013-02-01 04:02:00,
2013-01-31 21:11:00,9.0,-2.0,-100.00,SW,224,2.0,7.0,59,0.00,,,0.00,0.000000,,2013-02-01 04:11:00,
2013-01-31 21:21:00,9.0,-2.0,-100.00,SW,224,2.0,7.0,59,0.00,,,0.00,0.000000,,2013-02-01 04:21:00,
2013-01-31 21:32:00,9.0,-2.0,-100.00,SW,224,2.0,7.0,59,0.00,,,0.00,0.000000,,2013-02-01 04:32:00,
2013-01-31 21:40:00,12.0,1.0,-100.00,WSW,241,7.0,13.0,60,0.00,,,0.00,0.000000,,2013-02-01 04:40:00,
2013-01-31 22:03:00,12.0,1.0,-100.00,WSW,241,7.0,13.0,60,0.00,,,0.00,0.000000,,2013-02-01 05:03:00,
2013-01-31 22:12:00,12.0,1.0,-100.00,WSW,241,7.0,13.0,60,0.00,,,0.00,0.000000,,2013-02-01 05:12:00,
2013-01-31 22:22:00,12.0,1.0,-100.00,WSW,241,7.0,13.0,60,0.00,,,0.00,0.000000,,2013-02-01 05:22:00,
2013-01-31 22:32:00,12.0,1.0,-100.00,WSW,241,7.0,13.0,60,0.00,,,0.00,0.000000,,2013-02-01 05:32:00,
2013-01-31 22:40:00,14.0,3.0,-100.00,WSW,247,10.0,16.0,62,0.00,,,0.00,0.000000,,2013-02-01 05:40:00,
2013-01-31 23:02:00,14.0,3.0,-100.00,WSW,247,10.0,16.0,62,0.00,,,0.00,0.000000,,2013-02-01 06:02:00,
2013-01-31 23:11:00,14.0,3.0,-100.00,WSW,247,10.0,16.0,62,0.00,,,0.00,0.000000,,2013-02-01 06:11:00,
2013-01-31 23:22:00,14.0,3.0,-100.00,WSW,247,10.0,16.0,62,0.00,,,0.00,0.000000,,2013-02-01 06:22:00,
2013-01-31 23:32:00,14.0,3.0,-100.00,WSW,247,10.0,16.0,62,0.00,,,0.00,0.000000,,2013-02-01 06:32:00,
2013-01-31 23:40:00,14.0,4.0,-100.00,WSW,249,6.0,14.0,64,0.00,,,0.00,0.000000,,2013-02-01 06:40:00,